createdAt,value
2022-07-31T00:01:38.241Z,9.93
2022-07-31T00:06:41.293Z,7.15
2022-07-31T00:11:43.842Z,7.80
2022-07-31T00:16:45.355Z,8.77
2022-07-31T00:21:46.838Z,8.45
2022-07-31T00:26:48.250Z,9.75
2022-07-31T00:31:54.351Z,8.30
2022-07-31T00:36:55.794Z,7.47
2022-07-31T00:41:57.421Z,6.32
2022-07-31T00:46:58.979Z,7.88
2022-07-31T00:52:02.320Z,7.57
2022-07-31T00:57:04.267Z,10.70
2022-07-31T01:02:08.310Z,7.88
2022-07-31T01:07:09.739Z,7.60
2022-07-31T01:12:14.332Z,8.27
2022-07-31T01:17:16.677Z,8.38
2022-07-31T01:22:36.934Z,10.38
2022-07-31T01:27:50.129Z,11.38
2022-07-31T01:32:51.950Z,9.07
2022-07-31T01:38:07.563Z,9.75
2022-07-31T01:43:12.431Z,8.20
2022-07-31T01:48:14.567Z,8.35
2022-07-31T01:53:21.331Z,10.73
2022-07-31T01:58:23.577Z,10.85
2022-07-31T02:03:43.786Z,8.95
2022-07-31T02:08:47.586Z,9.73
2022-07-31T02:13:49.573Z,11.73
2022-07-31T02:18:52.262Z,11.32
2022-07-31T02:23:53.810Z,9.45
2022-07-31T02:28:55.688Z,9.13
2022-07-31T02:33:57.126Z,9.88
2022-07-31T02:38:58.871Z,11.60
2022-07-31T02:44:00.479Z,9.52
2022-07-31T02:49:02.352Z,8.45
2022-07-31T02:54:04.242Z,8.15
2022-07-31T02:59:05.837Z,8.57
2022-07-31T03:04:07.316Z,7.90
2022-07-31T03:09:08.859Z,8.75
2022-07-31T03:14:11.800Z,10.15
2022-07-31T03:19:13.394Z,9.02
2022-07-31T03:24:15.227Z,9.07
2022-07-31T03:29:42.333Z,9.57
2022-07-31T03:34:38.030Z,10.18
2022-07-31T03:39:39.522Z,8.70
2022-07-31T03:44:41.347Z,9.07
2022-07-31T03:49:42.849Z,15.55
2022-07-31T03:54:44.332Z,9.70
2022-07-31T03:59:48.671Z,9.30
2022-07-31T04:04:50.197Z,8.45
2022-07-31T04:09:51.665Z,9.38
2022-07-31T04:14:53.372Z,11.30
2022-07-31T04:19:54.841Z,10.82
2022-07-31T04:24:56.270Z,9.77
2022-07-31T04:29:57.837Z,9.63
2022-07-31T04:34:59.245Z,9.30
2022-07-31T04:40:00.759Z,10.63
2022-07-31T04:45:02.186Z,9.07
2022-07-31T04:50:04.144Z,9.32
2022-07-31T04:55:05.841Z,10.98
2022-07-31T05:00:08.649Z,11.30
2022-07-31T05:05:10.074Z,9.52
2022-07-31T05:10:31.478Z,9.77
2022-07-31T05:15:32.960Z,10.45
2022-07-31T05:20:34.396Z,11.13
2022-07-31T05:25:35.808Z,9.40
2022-07-31T05:30:37.259Z,9.00
2022-07-31T05:35:38.674Z,8.40
2022-07-31T05:40:44.821Z,13.50
2022-07-31T05:45:48.940Z,12.50
2022-07-31T05:50:50.870Z,9.43
2022-07-31T05:55:52.416Z,12.45
2022-07-31T06:00:53.810Z,13.07
2022-07-31T06:05:55.751Z,11.18
2022-07-31T06:10:57.649Z,12.05
2022-07-31T06:15:59.068Z,11.95
2022-07-31T06:21:00.464Z,12.45
2022-07-31T06:26:01.993Z,9.43
2022-07-31T06:31:04.819Z,11.15
2022-07-31T06:36:06.373Z,11.00
2022-07-31T06:41:07.790Z,11.90
2022-07-31T06:46:13.015Z,11.35
2022-07-31T06:51:30.380Z,12.50
2022-07-31T06:56:33.306Z,12.50
2022-07-31T07:01:34.858Z,10.60
2022-07-31T07:06:36.327Z,12.57
2022-07-31T07:11:37.738Z,13.70
2022-07-31T07:16:39.178Z,14.93
2022-07-31T07:21:40.615Z,12.63
2022-07-31T07:26:42.061Z,13.55
2022-07-31T07:31:43.463Z,12.43
2022-07-31T07:36:45.003Z,11.70
2022-07-31T07:41:46.433Z,13.73
2022-07-31T07:46:47.963Z,14.75
2022-07-31T07:51:58.929Z,13.45
2022-07-31T07:57:01.881Z,12.65
2022-07-31T08:02:03.659Z,11.75
2022-07-31T08:07:05.336Z,14.20
2022-07-31T08:12:07.192Z,16.65
2022-07-31T08:17:11.471Z,16.15
2022-07-31T08:22:15.327Z,17.67
2022-07-31T08:27:39.981Z,15.18
2022-07-31T08:32:42.215Z,15.60
2022-07-31T08:37:51.094Z,13.02
2022-07-31T08:43:19.333Z,16.10
2022-07-31T08:48:28.619Z,16.52
2022-07-31T08:53:31.045Z,16.95
2022-07-31T08:58:37.200Z,18.05
2022-07-31T09:03:40.632Z,14.60
2022-07-31T09:08:42.086Z,17.05
2022-07-31T09:14:02.213Z,18.70
2022-07-31T09:19:52.453Z,19.70
2022-07-31T09:24:29.038Z,19.38
2022-07-31T09:29:38.264Z,21.55
2022-07-31T09:39:51.876Z,25.35
2022-07-31T09:44:54.059Z,22.63
2022-07-31T09:50:03.685Z,25.23
2022-07-31T09:55:15.556Z,23.92
2022-07-31T10:00:18.176Z,25.63
2022-07-31T10:05:20.495Z,24.98
2022-07-31T10:10:22.348Z,27.20
2022-07-31T10:15:25.556Z,26.80
2022-07-31T10:20:27.719Z,24.63
2022-07-31T10:25:29.716Z,27.50
2022-07-31T10:30:31.123Z,24.85
2022-07-31T10:35:34.190Z,21.27
2022-07-31T10:40:39.534Z,16.92
2022-07-31T10:45:49.403Z,14.60
2022-07-31T10:51:04.290Z,12.68
2022-07-31T10:56:10.819Z,11.18
2022-07-31T11:01:12.462Z,11.70
2022-07-31T11:06:21.468Z,9.52
2022-07-31T11:11:32.973Z,10.63
2022-07-31T11:16:34.466Z,10.65
2022-07-31T11:21:39.630Z,10.88
2022-07-31T11:26:53.537Z,13.20
2022-07-31T11:31:55.095Z,13.60
2022-07-31T11:36:56.764Z,12.43
2022-07-31T11:42:02.203Z,13.07
2022-07-31T11:47:04.426Z,11.13
2022-07-31T11:52:31.011Z,13.43
2022-07-31T11:57:51.250Z,12.25
2022-07-31T12:02:54.146Z,12.13
2022-07-31T12:07:55.671Z,10.77
2022-07-31T12:12:57.121Z,10.82
2022-07-31T12:18:02.999Z,11.88
2022-07-31T12:23:05.452Z,12.00
2022-07-31T12:28:08.193Z,14.52
2022-07-31T12:33:10.785Z,12.27
2022-07-31T12:38:38.145Z,12.35
2022-07-31T12:43:51.183Z,13.50
2022-07-31T12:48:54.070Z,11.18
2022-07-31T12:53:55.543Z,11.10
2022-07-31T12:58:56.934Z,11.10
2022-07-31T13:03:58.755Z,13.07
2022-07-31T13:09:00.961Z,11.98
2022-07-31T13:14:02.444Z,9.48
2022-07-31T13:19:05.385Z,11.07
2022-07-31T13:24:09.100Z,11.68
2022-07-31T13:29:10.759Z,11.57
2022-07-31T13:34:12.589Z,12.98
2022-07-31T13:39:14.025Z,13.23
2022-07-31T13:44:15.531Z,12.55
2022-07-31T13:49:17.066Z,13.15
2022-07-31T13:54:18.562Z,12.07
2022-07-31T13:59:20.294Z,10.25
2022-07-31T14:04:23.872Z,8.48
2022-07-31T14:09:25.495Z,9.55
2022-07-31T14:14:26.946Z,8.18
2022-07-31T14:19:29.920Z,8.15
2022-07-31T14:24:31.413Z,8.23
2022-07-31T14:29:32.876Z,7.35
2022-07-31T14:34:37.688Z,7.22
2022-07-31T14:39:41.346Z,7.20
2022-07-31T14:44:44.566Z,7.95
2022-07-31T14:50:09.895Z,6.45
2022-07-31T14:55:07.788Z,7.03
2022-07-31T15:00:14.998Z,6.88
2022-07-31T15:06:41.630Z,7.60
2022-07-31T15:10:38.017Z,9.05
2022-07-31T15:15:39.462Z,8.65
2022-07-31T15:20:40.955Z,8.20
2022-07-31T15:25:42.434Z,13.05
2022-07-31T15:30:43.948Z,10.38
2022-07-31T15:35:46.676Z,8.93
2022-07-31T15:40:49.941Z,10.93
2022-07-31T15:45:51.518Z,11.80
2022-07-31T15:50:52.954Z,12.52
2022-07-31T15:55:54.473Z,11.13
2022-07-31T16:00:56.159Z,13.35
2022-07-31T16:05:57.750Z,12.38
2022-07-31T16:10:59.289Z,15.73
2022-07-31T16:16:00.739Z,12.50
2022-07-31T16:21:02.164Z,16.23
2022-07-31T16:26:03.594Z,17.45
2022-07-31T16:31:05.048Z,15.05
2022-07-31T16:36:06.509Z,15.90
2022-07-31T16:41:07.967Z,13.93
2022-07-31T16:46:09.626Z,16.60
2022-07-31T16:51:11.031Z,14.05
2022-07-31T16:56:12.819Z,15.32
2022-07-31T17:01:57.668Z,15.20
2022-07-31T17:06:38.062Z,17.20
2022-07-31T17:11:39.644Z,14.80
2022-07-31T17:16:47.112Z,14.50
2022-07-31T17:21:49.351Z,11.00
2022-07-31T17:26:51.381Z,10.70
2022-07-31T17:31:52.784Z,10.77
2022-07-31T17:36:54.808Z,11.45
2022-07-31T17:41:56.289Z,10.45
2022-07-31T17:46:58.244Z,8.95
2022-07-31T17:52:00.464Z,8.68
2022-07-31T17:57:02.539Z,9.82
2022-07-31T18:02:04.819Z,10.80
2022-07-31T18:07:07.138Z,10.15
2022-07-31T18:12:13.449Z,10.23
2022-07-31T18:17:16.696Z,10.85
2022-07-31T18:22:18.200Z,13.38
2022-07-31T18:27:19.750Z,12.05
2022-07-31T18:32:21.451Z,10.93
2022-07-31T18:37:22.847Z,10.68
2022-07-31T18:42:24.579Z,10.23
2022-07-31T18:47:26.553Z,10.23
2022-07-31T18:52:28.073Z,10.68
2022-07-31T18:57:30.596Z,12.05
2022-07-31T19:02:32.661Z,10.73
2022-07-31T19:07:37.317Z,12.15
2022-07-31T19:12:38.876Z,14.52
2022-07-31T19:17:43.868Z,19.08
2022-07-31T19:22:45.830Z,13.60
2022-07-31T19:27:50.468Z,12.82
2022-07-31T19:32:52.019Z,13.90
2022-07-31T19:37:57.179Z,15.95
2022-07-31T19:42:59.714Z,15.57
2022-07-31T19:48:02.315Z,21.27
2022-07-31T19:53:03.811Z,14.13
2022-07-31T19:58:06.924Z,15.23
2022-07-31T20:03:08.857Z,13.90
2022-07-31T20:08:10.530Z,14.90
2022-07-31T20:13:11.993Z,13.00
2022-07-31T20:18:23.582Z,11.15
2022-07-31T20:23:31.014Z,10.40
2022-07-31T20:28:32.554Z,10.30
2022-07-31T20:33:34.587Z,8.38
2022-07-31T20:38:36.057Z,8.65
2022-07-31T20:43:37.568Z,10.45
2022-07-31T20:48:39.059Z,7.53
2022-07-31T20:53:40.490Z,8.57
2022-07-31T20:58:42.044Z,7.35
2022-07-31T21:03:43.501Z,6.57
2022-07-31T21:08:45.165Z,7.10
2022-07-31T21:13:46.588Z,10.57
2022-07-31T21:18:50.584Z,8.30
2022-07-31T21:23:53.075Z,8.25
2022-07-31T21:28:54.821Z,8.43
2022-07-31T21:33:56.434Z,7.63
2022-07-31T21:38:58.043Z,10.50
2022-07-31T21:44:00.026Z,8.98
2022-07-31T21:49:01.658Z,7.75
2022-07-31T21:54:03.681Z,8.88
2022-07-31T21:59:05.078Z,7.80
2022-07-31T22:04:06.461Z,8.73
2022-07-31T22:09:07.903Z,7.90
2022-07-31T22:14:09.349Z,8.63
2022-07-31T22:19:11.081Z,8.48
2022-07-31T22:24:12.615Z,8.27
2022-07-31T22:29:14.110Z,10.15
2022-07-31T22:34:37.136Z,10.52
2022-07-31T22:39:39.605Z,11.70
2022-07-31T22:44:41.077Z,10.45
2022-07-31T22:49:43.607Z,9.52
2022-07-31T22:54:45.653Z,10.27
2022-07-31T22:59:47.543Z,10.10
2022-07-31T23:04:49.008Z,10.50
2022-07-31T23:09:50.434Z,9.95
2022-07-31T23:14:51.853Z,9.10
2022-07-31T23:19:54.424Z,9.98
2022-07-31T23:24:57.571Z,9.00
2022-07-31T23:29:59.366Z,10.13
2022-07-31T23:35:00.876Z,10.65
2022-07-31T23:40:02.325Z,13.40
2022-07-31T23:45:04.652Z,9.45
2022-07-31T23:50:06.820Z,10.40
2022-07-31T23:55:08.484Z,8.43
